»·PEaware :: N1742S KPHX-KTUS

N1742S :: KPHX-KTUS

FLIGHT INFORMATION

Flight Status: Arrived
Operator: Privately registered:
United States
More flights under this callsign
Pilot: Kellen B. (44695)
Aircraft: CESSNA 172 SKYHAWK
(C172)
More flights by this aircraft type
Origin: KPHX Phoenix Sky Harbor Intl
United States
Destination: KTUS Tucson Intl
United States
More flights between these airports :: More routes between these airports
Route: PXR V105 TUS
File this flight plan on PilotEdge
Remarks:
Altitude:
(Current/Filed)
9,000ft
Speed:
(Current/Filed)
107kts
Departed: 25-Jul-23 01:49 PM
Arrived: 25-Jul-23 02:55 PM
Distance/Time
Traveled:
95nm/1:06
Distance/Time
To Go:
Arrived

Flight Plot

Page will automatically refresh every two minutes.

Flight plan parsing failed; only flown route is shown


Map Options




Map Legend


Flown Route
Filed Route
Departure Airport
Arrival Airport
Navaid (VOR, NDB)
Fix

Horizontal Profiles

Position Reports

Time Latitude Longitude Heading Altitude Ground
Speed
25-Jul-23 13:32 33.424761 -112.017656 90 1125ft 0kts
25-Jul-23 13:33 33.424761 -112.017656 90 1125ft 0kts
25-Jul-23 13:34 33.424761 -112.017656 90 1125ft 0kts
25-Jul-23 13:35 33.424761 -112.017656 90 1125ft 0kts
25-Jul-23 13:36 33.424761 -112.017656 90 1125ft 0kts
25-Jul-23 13:37 33.424761 -112.017656 90 1125ft 0kts
25-Jul-23 13:38 33.424761 -112.017656 90 1125ft 0kts
25-Jul-23 13:39 33.424761 -112.017656 90 1125ft 0kts
25-Jul-23 13:40 33.424761 -112.017656 90 1125ft 0kts
25-Jul-23 13:41 33.424761 -112.017656 90 1125ft 0kts
25-Jul-23 13:42 33.424761 -112.017656 90 1125ft 0kts
25-Jul-23 13:43 33.427537 -112.017487 342 1125ft 12kts
25-Jul-23 13:44 33.427753 -112.024357 270 1123ft 31kts
25-Jul-23 13:45 33.427974 -112.026940 349 1120ft 0kts
25-Jul-23 13:46 33.427974 -112.026940 349 1120ft 0kts
25-Jul-23 13:47 33.428909 -112.025888 101 1119ft 27kts
25-Jul-23 13:48 33.428758 -112.000756 97 1379ft 91kts
25-Jul-23 13:49 33.413079 -111.981461 138 2049ft 80kts
25-Jul-23 13:50 33.394408 -111.960779 145 2495ft 94kts
25-Jul-23 13:51 33.375750 -111.939644 144 3112ft 90kts
25-Jul-23 13:52 33.357212 -111.919214 140 3652ft 88kts
25-Jul-23 13:53 33.338138 -111.899139 141 4200ft 91kts
25-Jul-23 13:54 33.318133 -111.881076 179 4796ft 85kts
25-Jul-23 13:55 33.295459 -111.889039 209 5230ft 85kts
25-Jul-23 13:56 33.273292 -111.899850 204 5708ft 85kts
25-Jul-23 13:57 33.250465 -111.910637 202 6078ft 94kts
25-Jul-23 13:58 33.224665 -111.922006 203 6322ft 93kts
25-Jul-23 13:59 33.201316 -111.932604 210 6701ft 86kts
25-Jul-23 14:00 33.178194 -111.941279 175 7098ft 91kts
25-Jul-23 14:01 33.152995 -111.938591 175 7489ft 90kts
25-Jul-23 14:02 33.127910 -111.935772 175 7848ft 90kts
25-Jul-23 14:03 33.102967 -111.932997 174 8218ft 89kts
25-Jul-23 14:04 33.078075 -111.930212 174 8587ft 89kts
25-Jul-23 14:05 33.053387 -111.927451 173 8910ft 88kts
25-Jul-23 14:06 33.025958 -111.924389 173 8878ft 102kts
25-Jul-23 14:07 32.997269 -111.921192 173 8879ft 104kts
25-Jul-23 14:08 32.969228 -111.918048 172 8872ft 100kts
25-Jul-23 14:09 32.940762 -111.914861 173 8878ft 105kts
25-Jul-23 14:10 32.917975 -111.912315 173 8873ft 104kts
25-Jul-23 14:11 32.893775 -111.909622 173 8876ft 102kts
25-Jul-23 14:12 32.869821 -111.895414 145 8871ft 96kts
25-Jul-23 14:13 32.856212 -111.884164 145 8870ft 98kts
25-Jul-23 14:14 32.833252 -111.865135 145 8874ft 102kts
25-Jul-23 14:15 32.810595 -111.846359 145 8854ft 89kts
25-Jul-23 14:16 32.795445 -111.833664 145 8808ft 59kts
25-Jul-23 14:17 32.782322 -111.822803 144 8835ft 56kts
25-Jul-23 14:18 32.769208 -111.811309 146 8852ft 57kts
25-Jul-23 14:19 32.753130 -111.798384 150 8909ft 82kts
25-Jul-23 14:20 32.729254 -111.780843 150 8913ft 111kts
25-Jul-23 14:21 32.704265 -111.758916 143 8839ft 109kts
25-Jul-23 14:22 32.679791 -111.738257 145 8830ft 108kts
25-Jul-23 14:23 32.655035 -111.717814 145 8823ft 109kts
25-Jul-23 14:24 32.630273 -111.697398 145 8817ft 108kts
25-Jul-23 14:25 32.605668 -111.677129 145 8822ft 108kts
25-Jul-23 14:26 32.581073 -111.656884 145 8831ft 106kts
25-Jul-23 14:27 32.556830 -111.636940 145 8832ft 105kts
25-Jul-23 14:28 32.532473 -111.616920 145 8844ft 107kts
25-Jul-23 14:29 32.507948 -111.596778 145 8872ft 107kts
25-Jul-23 14:30 32.483560 -111.576746 144 8878ft 105kts
25-Jul-23 14:31 32.459368 -111.556890 144 8882ft 106kts
25-Jul-23 14:32 32.434713 -111.536648 144 8890ft 108kts
25-Jul-23 14:33 32.419445 -111.508409 109 8489ft 106kts
25-Jul-23 14:34 32.409886 -111.475132 109 7912ft 103kts
25-Jul-23 14:35 32.400459 -111.442998 109 7920ft 105kts
25-Jul-23 14:36 32.390481 -111.409208 109 7926ft 111kts
25-Jul-23 14:37 32.380371 -111.374871 109 7915ft 107kts
25-Jul-23 14:38 32.370447 -111.341522 109 7395ft 108kts
25-Jul-23 14:39 32.360280 -111.308376 109 6926ft 94kts
25-Jul-23 14:40 32.350623 -111.277310 109 6943ft 110kts
25-Jul-23 14:41 32.341001 -111.246155 109 6925ft 93kts
25-Jul-23 14:42 32.332550 -111.218699 109 6926ft 85kts
25-Jul-23 14:43 32.322712 -111.187530 113 6959ft 112kts
25-Jul-23 14:44 32.303168 -111.158496 133 7002ft 117kts
25-Jul-23 14:45 32.280304 -111.131590 138 6835ft 109kts
25-Jul-23 14:46 32.260909 -111.109441 135 6350ft 88kts
25-Jul-23 14:47 32.243037 -111.088440 135 5663ft 100kts
25-Jul-23 14:48 32.222398 -111.064121 135 5133ft 105kts
25-Jul-23 14:49 32.202634 -111.040936 134 4676ft 94kts
25-Jul-23 14:50 32.182244 -111.016965 135 4194ft 112kts
25-Jul-23 14:51 32.161360 -110.992409 136 3790ft 103kts
25-Jul-23 14:52 32.142971 -110.970892 135 3241ft 79kts
25-Jul-23 14:53 32.126194 -110.951156 135 2665ft 82kts
25-Jul-23 14:54 32.118643 -110.940882 324 2592ft 9kts
25-Jul-23 14:55 32.118820 -110.940987 1 2588ft 0kts
25-Jul-23 14:56 32.120180 -110.941733 316 2589ft 19kts
25-Jul-23 14:57 32.124731 -110.947068 315 2570ft 3kts
25-Jul-23 14:58 32.129586 -110.942113 35 2573ft 19kts

Navigation Log

Ident Type
Flight plan parsing failed, navigation log unavailable